createdAt,value
2019-02-07T00:01:24.827Z,100894.98
2019-02-07T00:02:59.569Z,100884.04
2019-02-07T00:04:34.541Z,100887.87
2019-02-07T00:06:09.669Z,100887.53
2019-02-07T00:07:44.292Z,100885.06
2019-02-07T00:09:19.061Z,100874.95
2019-02-07T00:10:54.170Z,100878.52
2019-02-07T00:12:28.687Z,100878.30
2019-02-07T00:14:03.744Z,100872.20
2019-02-07T00:15:38.222Z,100874.34
2019-02-07T00:17:12.610Z,100874.13
2019-02-07T00:18:46.977Z,100870.53
2019-02-07T00:20:21.696Z,100866.25
2019-02-07T00:21:56.185Z,100869.72
2019-02-07T00:23:31.453Z,100864.84
2019-02-07T00:25:07.018Z,100857.87
2019-02-07T00:26:41.780Z,100861.31
2019-02-07T00:28:16.304Z,100860.09
2019-02-07T00:29:50.924Z,100855.01
2019-02-07T00:31:25.517Z,100852.02
2019-02-07T00:32:59.922Z,100854.64
2019-02-07T00:34:34.462Z,100852.02
2019-02-07T00:36:09.554Z,100849.58
2019-02-07T00:37:44.401Z,100843.55
2019-02-07T00:39:19.119Z,100831.78
2019-02-07T00:40:53.940Z,100842.20
2019-02-07T00:42:28.329Z,100832.09
2019-02-07T00:44:02.900Z,100831.98
2019-02-07T00:45:37.498Z,100831.30
2019-02-07T00:47:11.941Z,100831.36
2019-02-07T00:48:46.788Z,100834.00
2019-02-07T00:50:21.265Z,100834.09
2019-02-07T00:51:56.115Z,100829.55
2019-02-07T00:53:30.938Z,100833.36
2019-02-07T00:55:08.935Z,100823.53
2019-02-07T00:56:44.034Z,100822.94
2019-02-07T00:58:19.105Z,100825.92
2019-02-07T00:59:54.063Z,100818.61
2019-02-07T01:01:29.834Z,100811.15
2019-02-07T01:03:04.733Z,100813.11
2019-02-07T01:04:39.678Z,100800.54
2019-02-07T01:06:14.618Z,100803.73
2019-02-07T01:07:49.764Z,100799.55
2019-02-07T01:09:25.291Z,100794.08
2019-02-07T01:11:00.191Z,100796.03
2019-02-07T01:12:35.439Z,100795.91
2019-02-07T01:14:10.260Z,100798.44
2019-02-07T01:15:45.147Z,100793.25
2019-02-07T01:17:20.116Z,100783.86
2019-02-07T01:18:54.550Z,100791.80
2019-02-07T01:20:29.530Z,100786.91
2019-02-07T01:22:04.664Z,100777.41
2019-02-07T01:23:39.697Z,100784.66
2019-02-07T01:25:16.798Z,100773.27
2019-02-07T01:26:51.343Z,100776.37
2019-02-07T01:28:25.792Z,100770.68
2019-02-07T01:30:00.824Z,100768.94
2019-02-07T01:31:35.483Z,100754.11
2019-02-07T01:33:10.015Z,100756.13
2019-02-07T01:34:44.582Z,100756.68
2019-02-07T01:36:19.429Z,100742.42
2019-02-07T01:37:54.255Z,100745.45
2019-02-07T01:39:28.669Z,100742.17
2019-02-07T01:41:03.295Z,100738.16
2019-02-07T01:42:38.171Z,100730.53
2019-02-07T01:44:13.208Z,100731.86
2019-02-07T01:45:48.062Z,100735.16
2019-02-07T01:47:23.067Z,100731.87
2019-02-07T01:48:57.885Z,100731.98
2019-02-07T01:50:32.440Z,100728.28
2019-02-07T01:52:07.324Z,100718.47
2019-02-07T01:53:42.069Z,100717.67
2019-02-07T01:55:16.664Z,100716.56
2019-02-07T01:56:51.418Z,100721.72
2019-02-07T01:58:26.395Z,100723.02
2019-02-07T02:00:01.694Z,100712.22
2019-02-07T02:01:36.225Z,100713.96
2019-02-07T02:03:10.629Z,100709.87
2019-02-07T02:04:45.343Z,100706.98
2019-02-07T02:06:19.822Z,100699.83
2019-02-07T02:07:54.380Z,100703.09
2019-02-07T02:09:28.932Z,100698.38
2019-02-07T02:11:03.741Z,100688.53
2019-02-07T02:12:38.579Z,100691.91
2019-02-07T02:14:13.435Z,100685.55
2019-02-07T02:15:47.902Z,100681.19
2019-02-07T02:17:22.654Z,100681.58
2019-02-07T02:18:57.449Z,100677.06
2019-02-07T02:20:32.351Z,100677.51
2019-02-07T02:22:06.967Z,100672.16
2019-02-07T02:23:41.430Z,100664.39
2019-02-07T02:25:16.651Z,100670.82
2019-02-07T02:26:51.163Z,100663.56
2019-02-07T02:28:25.899Z,100660.64
2019-02-07T02:30:00.777Z,100660.16
2019-02-07T02:31:35.432Z,100661.33
2019-02-07T02:33:10.329Z,100663.36
2019-02-07T02:34:45.233Z,100655.27
2019-02-07T02:36:20.139Z,100655.88
2019-02-07T02:37:55.415Z,100658.31
2019-02-07T02:39:30.252Z,100657.92
2019-02-07T02:41:05.188Z,100650.45
2019-02-07T02:42:40.087Z,100652.52
2019-02-07T02:44:15.063Z,100646.75
2019-02-07T02:45:49.927Z,100646.76
2019-02-07T02:47:24.975Z,100649.88
2019-02-07T02:48:59.823Z,100640.88
2019-02-07T02:50:35.192Z,100642.91
2019-02-07T02:52:10.380Z,100642.88
2019-02-07T02:53:45.460Z,100641.29
2019-02-07T02:55:28.423Z,100640.44
2019-02-07T02:57:03.926Z,100637.03
2019-02-07T02:58:39.252Z,100640.64
2019-02-07T03:00:20.998Z,100640.53
2019-02-07T03:02:04.529Z,100630.05
2019-02-07T03:04:07.681Z,100621.62
2019-02-07T03:05:56.147Z,100621.89
2019-02-07T03:07:49.465Z,100609.54
2019-02-07T03:09:37.505Z,100601.34
2019-02-07T03:11:22.815Z,100608.08
2019-02-07T03:13:21.769Z,100617.76
2019-02-07T03:15:11.618Z,100612.31
2019-02-07T03:17:04.254Z,100608.43
2019-02-07T03:18:57.334Z,100597.18
2019-02-07T03:20:45.602Z,100601.84
2019-02-07T03:22:48.663Z,100591.20
2019-02-07T03:24:42.497Z,100578.82
2019-02-07T03:26:38.501Z,100581.62
2019-02-07T03:28:31.796Z,100574.84
2019-02-07T03:30:26.588Z,100576.58
2019-02-07T03:32:08.990Z,100568.75
2019-02-07T03:34:01.829Z,100568.65
2019-02-07T03:36:14.330Z,100576.30
2019-02-07T03:38:17.822Z,100580.88
2019-02-07T03:40:02.577Z,100579.34
2019-02-07T03:41:47.944Z,100570.53
2019-02-07T03:43:40.811Z,100571.72
2019-02-07T03:45:33.689Z,100562.56
2019-02-07T03:47:33.189Z,100569.63
2019-02-07T03:49:20.402Z,100561.02
2019-02-07T03:51:11.572Z,100551.91
2019-02-07T03:52:57.575Z,100558.72
2019-02-07T03:54:51.650Z,100557.77
2019-02-07T03:56:45.480Z,100555.31
2019-02-07T03:58:42.698Z,100556.55
2019-02-07T04:00:40.432Z,100556.16
2019-02-07T04:02:33.437Z,100553.03
2019-02-07T04:04:34.602Z,100549.34
2019-02-07T04:06:46.844Z,100546.11
2019-02-07T04:08:39.670Z,100551.33
2019-02-07T04:10:31.411Z,100548.23
2019-02-07T04:12:14.534Z,100541.44
2019-02-07T04:14:14.663Z,100532.55
2019-02-07T04:16:15.166Z,100534.77
2019-02-07T04:17:59.782Z,100531.28
2019-02-07T04:19:50.522Z,100520.67
2019-02-07T04:21:40.229Z,100514.55
2019-02-07T04:23:34.279Z,100522.42
2019-02-07T04:25:22.665Z,100511.20
2019-02-07T04:27:14.601Z,100512.91
2019-02-07T04:29:20.903Z,100512.54
2019-02-07T04:31:05.623Z,100514.39
2019-02-07T04:32:58.772Z,100501.01
2019-02-07T04:34:52.011Z,100499.80
2019-02-07T04:36:34.905Z,100502.02
2019-02-07T04:38:27.353Z,100499.55
2019-02-07T04:40:13.645Z,100498.10
2019-02-07T04:42:04.359Z,100488.32
2019-02-07T04:43:57.357Z,100490.12
2019-02-07T04:45:54.346Z,100482.83
2019-02-07T04:47:46.776Z,100481.63
2019-02-07T04:49:36.717Z,100480.34
2019-02-07T04:51:23.459Z,100471.37
2019-02-07T04:53:13.866Z,100482.29
2019-02-07T04:55:06.430Z,100479.40
2019-02-07T04:56:50.285Z,100476.41
2019-02-07T04:58:43.882Z,100455.79
2019-02-07T05:00:33.472Z,100452.23
2019-02-07T05:02:21.282Z,100459.32
2019-02-07T05:04:19.246Z,100452.07
2019-02-07T05:06:03.984Z,100450.73
2019-02-07T05:08:01.922Z,100451.75
2019-02-07T05:09:54.503Z,100455.98
2019-02-07T05:11:42.733Z,100447.84
2019-02-07T05:13:35.409Z,100449.63
2019-02-07T05:15:33.095Z,100451.35
2019-02-07T05:17:30.030Z,100441.14
2019-02-07T05:19:22.696Z,100447.44
2019-02-07T05:21:15.597Z,100449.02
2019-02-07T05:23:12.459Z,100445.09
2019-02-07T05:25:09.269Z,100442.83
2019-02-07T05:27:03.078Z,100440.92
2019-02-07T05:28:49.823Z,100441.45
2019-02-07T05:30:33.813Z,100443.41
2019-02-07T05:32:19.835Z,100443.94
2019-02-07T05:34:13.615Z,100450.46
2019-02-07T05:36:06.618Z,100444.63
2019-02-07T05:37:59.482Z,100449.07
2019-02-07T05:40:01.155Z,100449.77
2019-02-07T05:41:55.484Z,100443.51
2019-02-07T05:43:40.469Z,100446.38
2019-02-07T05:45:22.487Z,100439.77
2019-02-07T05:47:05.824Z,100435.54
2019-02-07T05:48:58.561Z,100446.17
2019-02-07T05:50:57.482Z,100451.94
2019-02-07T05:52:57.967Z,100449.59
2019-02-07T05:54:50.873Z,100451.70
2019-02-07T05:56:43.465Z,100458.33
2019-02-07T05:58:37.872Z,100461.71
2019-02-07T06:00:35.279Z,100465.78
2019-02-07T06:02:41.512Z,100459.92
2019-02-07T06:04:34.321Z,100462.93
2019-02-07T06:06:34.529Z,100455.58
2019-02-07T06:08:30.513Z,100452.61
2019-02-07T06:10:23.083Z,100442.81
2019-02-07T06:12:23.599Z,100441.87
2019-02-07T06:14:16.300Z,100436.73
2019-02-07T06:16:10.639Z,100433.30
2019-02-07T06:18:03.413Z,100436.80
2019-02-07T06:19:58.450Z,100430.67
2019-02-07T06:21:39.431Z,100437.06
2019-02-07T06:23:32.582Z,100431.30
2019-02-07T06:25:45.853Z,100427.37
2019-02-07T06:27:41.297Z,100428.55
2019-02-07T06:29:46.249Z,100425.81
2019-02-07T06:31:38.866Z,100427.17
2019-02-07T06:33:32.996Z,100426.91
2019-02-07T06:35:25.998Z,100425.30
2019-02-07T06:37:18.788Z,100428.22
2019-02-07T06:39:11.355Z,100423.47
2019-02-07T06:41:10.583Z,100413.48
2019-02-07T06:42:53.511Z,100408.45
2019-02-07T06:44:50.027Z,100417.33
2019-02-07T06:46:36.428Z,100413.16
2019-02-07T06:48:39.960Z,100419.98
2019-02-07T06:50:37.458Z,100415.16
2019-02-07T06:52:40.291Z,100410.61
2019-02-07T06:54:32.877Z,100406.75
2019-02-07T06:56:35.456Z,100404.00
2019-02-07T06:58:29.298Z,100397.02
2019-02-07T07:00:17.567Z,100402.80
2019-02-07T07:02:02.148Z,100401.57
2019-02-07T07:03:48.922Z,100397.28
2019-02-07T07:05:40.084Z,100390.99
2019-02-07T07:07:40.856Z,100397.55
2019-02-07T07:09:25.515Z,100397.08
2019-02-07T07:11:11.214Z,100394.59
2019-02-07T07:12:55.569Z,100394.28
2019-02-07T07:14:52.701Z,100396.03
2019-02-07T07:16:41.042Z,100390.73
2019-02-07T07:18:26.834Z,100387.94
2019-02-07T07:20:17.484Z,100399.98
2019-02-07T07:22:04.429Z,100394.70
2019-02-07T07:23:56.855Z,100390.47
2019-02-07T07:26:01.477Z,100390.48
2019-02-07T07:27:53.568Z,100392.53
2019-02-07T07:29:51.014Z,100385.19
2019-02-07T07:31:53.834Z,100380.64
2019-02-07T07:34:00.103Z,100374.40
2019-02-07T07:36:06.377Z,100382.33
2019-02-07T07:37:51.929Z,100370.59
2019-02-07T07:39:45.101Z,100373.72
2019-02-07T07:41:37.576Z,100370.55
2019-02-07T07:43:37.471Z,100375.77
2019-02-07T07:45:33.443Z,100370.28
2019-02-07T07:47:36.019Z,100370.64
2019-02-07T07:49:28.090Z,100368.95
2019-02-07T07:51:11.009Z,100358.58
2019-02-07T07:53:01.373Z,100357.62
2019-02-07T07:54:55.615Z,100358.50
2019-02-07T07:56:54.205Z,100348.69
2019-02-07T07:59:06.708Z,100352.45
2019-02-07T08:00:56.692Z,100346.97
2019-02-07T08:02:50.542Z,100340.98
2019-02-07T08:04:44.374Z,100346.28
2019-02-07T08:06:36.878Z,100346.66
2019-02-07T08:08:29.926Z,100340.15
2019-02-07T08:10:24.664Z,100346.75
2019-02-07T08:12:24.843Z,100337.47
2019-02-07T08:14:27.493Z,100330.34
2019-02-07T08:16:16.829Z,100325.33
2019-02-07T08:18:10.034Z,100320.03
2019-02-07T08:19:54.793Z,100308.06
2019-02-07T08:21:51.432Z,100311.95
2019-02-07T08:23:43.327Z,100312.72
2019-02-07T08:25:36.185Z,100313.34
2019-02-07T08:27:32.872Z,100315.97
2019-02-07T08:29:29.455Z,100320.92
2019-02-07T08:31:21.783Z,100327.77
2019-02-07T08:33:17.670Z,100331.17
2019-02-07T08:35:14.066Z,100331.92
2019-02-07T08:37:17.574Z,100338.34
2019-02-07T08:39:11.187Z,100341.70
2019-02-07T08:40:55.658Z,100338.25
2019-02-07T08:42:55.511Z,100336.64
2019-02-07T08:44:57.528Z,100334.50
2019-02-07T08:46:45.504Z,100324.99
2019-02-07T08:48:42.265Z,100328.67
2019-02-07T08:50:35.180Z,100337.99
2019-02-07T08:52:37.756Z,100329.98
2019-02-07T08:54:44.659Z,100324.13
2019-02-07T08:56:36.364Z,100320.66
2019-02-07T08:58:32.763Z,100308.92
2019-02-07T09:00:26.777Z,100303.50
2019-02-07T09:02:19.722Z,100298.83
2019-02-07T09:04:12.230Z,100297.33
2019-02-07T09:06:05.110Z,100304.99
2019-02-07T09:07:54.682Z,100302.23
2019-02-07T09:09:51.264Z,100296.42
2019-02-07T09:11:44.658Z,100308.91
2019-02-07T09:13:44.096Z,100312.80
2019-02-07T09:15:46.994Z,100297.95
2019-02-07T09:17:38.271Z,100288.72
2019-02-07T09:19:31.651Z,100283.86
2019-02-07T09:21:18.887Z,100290.17
2019-02-07T09:23:01.549Z,100295.64
2019-02-07T09:24:51.886Z,100302.09
2019-02-07T09:26:50.954Z,100287.95
2019-02-07T09:28:40.900Z,100308.31
2019-02-07T09:30:43.490Z,100315.79
2019-02-07T09:32:49.390Z,100298.48
2019-02-07T09:34:34.190Z,100313.02
2019-02-07T09:36:27.094Z,100315.75
2019-02-07T09:38:36.747Z,100314.34
2019-02-07T09:40:31.181Z,100314.17
2019-02-07T09:42:28.779Z,100330.82
2019-02-07T09:44:18.567Z,100314.88
2019-02-07T09:46:13.040Z,100315.71
2019-02-07T09:48:05.567Z,100323.22
2019-02-07T09:49:46.875Z,100309.67
2019-02-07T09:51:40.430Z,100313.97
2019-02-07T09:53:29.390Z,100309.41
2019-02-07T09:55:29.922Z,100309.69
2019-02-07T09:57:13.654Z,100303.84
2019-02-07T09:58:58.199Z,100301.31
2019-02-07T10:00:38.433Z,100303.08
2019-02-07T10:02:24.549Z,100297.73
2019-02-07T10:04:22.928Z,100293.78
2019-02-07T10:06:31.992Z,100298.50
2019-02-07T10:08:29.437Z,100302.71
2019-02-07T10:10:23.729Z,100295.63
2019-02-07T10:12:20.355Z,100293.16
2019-02-07T10:14:23.718Z,100301.31
2019-02-07T10:16:21.262Z,100288.75
2019-02-07T10:18:15.601Z,100285.14
2019-02-07T10:20:00.268Z,100279.61
2019-02-07T10:22:09.251Z,100287.73
2019-02-07T10:23:50.504Z,100273.84
2019-02-07T10:25:44.278Z,100276.39
2019-02-07T10:27:41.796Z,100270.72
2019-02-07T10:29:24.731Z,100274.98
2019-02-07T10:31:14.152Z,100280.86
2019-02-07T10:33:16.995Z,100269.97
2019-02-07T10:34:58.811Z,100257.40
2019-02-07T10:36:43.308Z,100247.22
2019-02-07T10:38:46.567Z,100249.03
2019-02-07T10:40:55.566Z,100250.73
2019-02-07T10:42:41.657Z,100245.50
2019-02-07T10:44:24.589Z,100249.83
2019-02-07T10:46:10.752Z,100244.33
2019-02-07T10:48:03.191Z,100243.83
2019-02-07T10:50:15.114Z,100239.23
2019-02-07T10:52:08.867Z,100236.39
2019-02-07T10:54:06.162Z,100228.57
2019-02-07T10:55:58.864Z,100225.94
2019-02-07T10:57:52.028Z,100225.16
2019-02-07T10:59:46.243Z,100224.70
2019-02-07T11:01:45.679Z,100224.93
2019-02-07T11:03:30.377Z,100222.24
2019-02-07T11:05:29.166Z,100221.52
2019-02-07T11:07:21.905Z,100226.83
2019-02-07T11:09:27.546Z,100220.02
2019-02-07T11:11:09.240Z,100204.53
2019-02-07T11:13:00.066Z,100197.67
2019-02-07T11:14:52.462Z,100196.09
2019-02-07T11:16:45.047Z,100197.90
2019-02-07T11:18:41.315Z,100196.33
2019-02-07T11:20:34.770Z,100187.34
2019-02-07T11:22:24.956Z,100190.75
2019-02-07T11:24:31.037Z,100187.01
2019-02-07T11:26:24.302Z,100181.62
2019-02-07T11:28:21.491Z,100182.72
2019-02-07T11:30:08.592Z,100169.14
2019-02-07T11:32:01.474Z,100161.72
2019-02-07T11:33:54.199Z,100177.95
2019-02-07T11:35:46.949Z,100173.97
2019-02-07T11:37:43.822Z,100181.06
2019-02-07T11:39:37.064Z,100172.17
2019-02-07T11:41:29.566Z,100164.81
2019-02-07T11:43:26.360Z,100158.15
2019-02-07T11:45:14.985Z,100154.69
2019-02-07T11:47:09.639Z,100167.07
2019-02-07T11:49:06.298Z,100161.98
2019-02-07T11:51:06.486Z,100160.83
2019-02-07T11:52:59.313Z,100164.58
2019-02-07T11:54:41.450Z,100161.69
2019-02-07T11:56:34.205Z,100166.59
2019-02-07T11:58:31.362Z,100161.59
2019-02-07T12:00:23.933Z,100155.44
2019-02-07T12:02:29.886Z,100165.02
2019-02-07T12:04:15.481Z,100168.91
2019-02-07T12:06:15.151Z,100172.06
2019-02-07T12:08:12.222Z,100163.63
2019-02-07T12:10:05.034Z,100166.74
2019-02-07T12:12:11.365Z,100171.53
2019-02-07T12:13:55.638Z,100160.22
2019-02-07T12:15:57.898Z,100165.73
2019-02-07T12:17:42.842Z,100159.95
2019-02-07T12:19:33.566Z,100162.81
2019-02-07T12:21:25.701Z,100151.66
2019-02-07T12:23:17.956Z,100165.92
2019-02-07T12:25:14.550Z,100160.52
2019-02-07T12:26:58.230Z,100155.67
2019-02-07T12:28:55.037Z,100154.28
2019-02-07T12:30:56.366Z,100149.50
2019-02-07T12:32:59.035Z,100153.16
2019-02-07T12:35:02.207Z,100152.44
2019-02-07T12:36:56.075Z,100154.16
2019-02-07T12:38:58.739Z,100152.58
2019-02-07T12:40:50.789Z,100146.31
2019-02-07T12:42:37.350Z,100150.87
2019-02-07T12:44:37.232Z,100158.08
2019-02-07T12:46:24.554Z,100153.78
2019-02-07T12:48:08.654Z,100148.84
2019-02-07T12:50:01.305Z,100149.02
2019-02-07T12:51:54.867Z,100139.33
2019-02-07T12:53:57.904Z,100138.66
2019-02-07T12:56:00.688Z,100132.41
2019-02-07T12:58:12.930Z,100130.64
2019-02-07T13:00:14.235Z,100123.92
2019-02-07T13:01:59.461Z,100116.26
2019-02-07T13:03:59.186Z,100114.63
2019-02-07T13:05:56.319Z,100116.27
2019-02-07T13:07:48.463Z,100111.71
2019-02-07T13:09:41.123Z,100110.09
2019-02-07T13:11:44.356Z,100110.53
2019-02-07T13:13:29.637Z,100107.60
2019-02-07T13:15:36.710Z,100097.33
2019-02-07T13:17:34.666Z,100106.20
2019-02-07T13:19:19.153Z,100111.58
2019-02-07T13:21:07.241Z,100101.34
2019-02-07T13:23:01.192Z,100098.02
2019-02-07T13:24:47.106Z,100099.00
2019-02-07T13:26:41.125Z,100086.26
2019-02-07T13:28:34.349Z,100084.22
2019-02-07T13:30:34.365Z,100092.10
2019-02-07T13:32:28.456Z,100094.47
2019-02-07T13:34:21.067Z,100088.44
2019-02-07T13:36:25.081Z,100085.98
2019-02-07T13:38:21.743Z,100085.39
2019-02-07T13:40:25.882Z,100084.19
2019-02-07T13:42:18.512Z,100082.39
2019-02-07T13:44:10.955Z,100083.09
2019-02-07T13:46:04.367Z,100090.66
2019-02-07T13:47:56.855Z,100077.68
2019-02-07T13:50:05.725Z,100081.80
2019-02-07T13:51:52.454Z,100081.22
2019-02-07T13:53:36.377Z,100083.03
2019-02-07T13:55:26.123Z,100082.75
2019-02-07T13:57:11.498Z,100090.05
2019-02-07T13:59:03.367Z,100086.02
2019-02-07T14:01:03.258Z,100085.70
2019-02-07T14:02:56.062Z,100088.16
2019-02-07T14:04:52.082Z,100085.77
2019-02-07T14:06:51.739Z,100095.21
2019-02-07T14:08:54.596Z,100088.52
2019-02-07T14:10:47.773Z,100086.41
2019-02-07T14:12:39.962Z,100082.69
2019-02-07T14:14:22.014Z,100080.33
2019-02-07T14:16:24.857Z,100078.38
2019-02-07T14:18:24.561Z,100077.20
2019-02-07T14:20:17.074Z,100086.73
2019-02-07T14:22:12.273Z,100077.05
2019-02-07T14:24:12.547Z,100082.00
2019-02-07T14:26:07.371Z,100083.56
2019-02-07T14:27:56.311Z,100079.78
2019-02-07T14:29:40.578Z,100080.36
2019-02-07T14:31:38.238Z,100083.20
2019-02-07T14:33:29.404Z,100085.59
2019-02-07T14:35:22.437Z,100093.81
2019-02-07T14:37:28.358Z,100090.11
2019-02-07T14:39:22.189Z,100085.77
2019-02-07T14:41:34.149Z,100088.55
2019-02-07T14:43:29.306Z,100086.31
2019-02-07T14:45:32.213Z,100077.89
2019-02-07T14:47:06.734Z,100084.11
2019-02-07T14:48:42.139Z,100084.21
2019-02-07T14:50:16.523Z,100082.11
2019-02-07T14:51:51.588Z,100090.16
2019-02-07T14:53:26.113Z,100091.37
2019-02-07T14:55:00.831Z,100093.12
2019-02-07T14:56:35.216Z,100085.30
2019-02-07T14:58:09.755Z,100086.75
2019-02-07T14:59:44.575Z,100088.09
2019-02-07T15:01:19.224Z,100096.88
2019-02-07T15:02:53.757Z,100089.31
2019-02-07T15:04:28.480Z,100087.34
2019-02-07T15:06:03.257Z,100088.88
2019-02-07T15:07:37.698Z,100094.09
2019-02-07T15:09:16.915Z,100092.53
2019-02-07T15:10:51.522Z,100086.11
2019-02-07T15:12:26.166Z,100086.29
2019-02-07T15:14:00.978Z,100098.87
2019-02-07T15:15:35.677Z,100092.30
2019-02-07T15:17:10.126Z,100088.98
2019-02-07T15:18:46.142Z,100095.62
2019-02-07T15:20:26.236Z,100094.23
2019-02-07T15:21:56.914Z,100096.59
2019-02-07T15:23:31.651Z,100095.52
2019-02-07T15:25:07.031Z,100088.66
2019-02-07T15:26:42.051Z,100093.95
2019-02-07T15:28:17.138Z,100086.77
2019-02-07T15:29:51.940Z,100097.10
2019-02-07T15:31:27.030Z,100098.97
2019-02-07T15:33:01.835Z,100100.80
2019-02-07T15:34:36.655Z,100099.63
2019-02-07T15:36:12.899Z,100098.09
2019-02-07T15:37:48.094Z,100092.34
2019-02-07T15:39:23.335Z,100098.06
2019-02-07T15:40:58.137Z,100097.69
2019-02-07T15:42:33.081Z,100096.05
2019-02-07T15:44:08.394Z,100092.34
2019-02-07T15:45:43.438Z,100092.10
2019-02-07T15:47:18.497Z,100091.86
2019-02-07T15:48:53.326Z,100090.61
2019-02-07T15:50:37.825Z,100104.52
2019-02-07T15:52:05.176Z,100099.91
2019-02-07T15:53:40.044Z,100100.77
2019-02-07T15:55:16.030Z,100102.73
2019-02-07T15:56:50.904Z,100103.59
2019-02-07T15:58:36.868Z,100102.31
2019-02-07T16:00:33.794Z,100114.74
2019-02-07T16:02:30.655Z,100114.24
2019-02-07T16:04:24.655Z,100110.96
2019-02-07T16:05:59.103Z,100119.17
2019-02-07T16:07:33.490Z,100117.37
2019-02-07T16:09:09.498Z,100120.56
2019-02-07T16:10:43.896Z,100114.34
2019-02-07T16:12:18.667Z,100115.88
2019-02-07T16:13:53.260Z,100118.26
2019-02-07T16:15:27.865Z,100116.94
2019-02-07T16:17:02.542Z,100113.91
2019-02-07T16:18:36.980Z,100114.08
2019-02-07T16:20:14.430Z,100116.31
2019-02-07T16:21:49.145Z,100128.91
2019-02-07T16:23:23.675Z,100125.59
2019-02-07T16:24:58.218Z,100128.91
2019-02-07T16:26:32.927Z,100131.81
2019-02-07T16:28:07.431Z,100129.11
2019-02-07T16:29:42.234Z,100136.90
2019-02-07T16:31:17.152Z,100134.53
2019-02-07T16:32:52.074Z,100138.30
2019-02-07T16:34:27.616Z,100136.77
2019-02-07T16:36:02.075Z,100138.17
2019-02-07T16:37:36.878Z,100143.38
2019-02-07T16:39:11.411Z,100139.88
2019-02-07T16:40:45.959Z,100144.79
2019-02-07T16:42:20.794Z,100141.27
2019-02-07T16:43:55.440Z,100140.03
2019-02-07T16:45:29.987Z,100149.33
2019-02-07T16:47:05.064Z,100145.39
2019-02-07T16:48:39.715Z,100145.39
2019-02-07T16:50:16.061Z,100151.87
2019-02-07T16:51:50.614Z,100154.97
2019-02-07T16:53:25.673Z,100150.61
2019-02-07T16:55:00.534Z,100157.72
2019-02-07T16:56:35.449Z,100156.09
2019-02-07T16:58:10.160Z,100151.16
2019-02-07T16:59:45.043Z,100155.63
2019-02-07T17:01:19.744Z,100147.50
2019-02-07T17:02:55.350Z,100148.73
2019-02-07T17:04:30.132Z,100144.96
2019-02-07T17:06:05.641Z,100153.39
2019-02-07T17:07:40.094Z,100153.93
2019-02-07T17:09:30.599Z,100151.09
2019-02-07T17:11:05.899Z,100145.84
2019-02-07T17:12:40.494Z,100136.44
2019-02-07T17:14:15.198Z,100136.83
2019-02-07T17:15:50.042Z,100130.35
2019-02-07T17:17:24.467Z,100130.72
2019-02-07T17:18:59.143Z,100123.50
2019-02-07T17:20:33.789Z,100126.98
2019-02-07T17:22:08.586Z,100130.35
2019-02-07T17:23:43.420Z,100130.42
2019-02-07T17:25:18.010Z,100132.80
2019-02-07T17:26:52.467Z,100136.08
2019-02-07T17:28:27.555Z,100137.01
2019-02-07T17:30:02.036Z,100135.04
2019-02-07T17:31:36.583Z,100138.98
2019-02-07T17:33:11.211Z,100145.48
2019-02-07T17:34:46.104Z,100150.28
2019-02-07T17:36:20.558Z,100153.89
2019-02-07T17:37:55.559Z,100152.76
2019-02-07T17:39:30.050Z,100158.55
2019-02-07T17:41:05.104Z,100155.92
2019-02-07T17:42:39.478Z,100164.08
2019-02-07T17:44:14.002Z,100161.92
2019-02-07T17:45:49.045Z,100158.63
2019-02-07T17:47:23.503Z,100153.47
2019-02-07T17:48:57.944Z,100150.78
2019-02-07T17:50:33.194Z,100150.58
2019-02-07T17:52:07.822Z,100155.42
2019-02-07T17:53:42.595Z,100161.15
2019-02-07T17:55:17.879Z,100155.94
2019-02-07T17:56:52.554Z,100159.92
2019-02-07T17:58:27.127Z,100154.35
2019-02-07T18:00:01.612Z,100153.33
2019-02-07T18:01:36.226Z,100152.31
2019-02-07T18:03:10.700Z,100155.58
2019-02-07T18:04:45.358Z,100156.48
2019-02-07T18:06:20.358Z,100157.38
2019-02-07T18:07:55.084Z,100164.19
2019-02-07T18:09:29.627Z,100167.66
2019-02-07T18:11:05.446Z,100160.58
2019-02-07T18:12:39.830Z,100162.23
2019-02-07T18:14:14.536Z,100165.92
2019-02-07T18:15:49.427Z,100172.36
2019-02-07T18:17:24.158Z,100171.52
2019-02-07T18:18:58.618Z,100166.63
2019-02-07T18:20:33.078Z,100172.19
2019-02-07T18:22:07.802Z,100170.45
2019-02-07T18:23:42.649Z,100174.33
2019-02-07T18:25:17.345Z,100176.94
2019-02-07T18:26:51.995Z,100187.78
2019-02-07T18:28:26.862Z,100183.87
2019-02-07T18:30:01.689Z,100190.42
2019-02-07T18:31:36.507Z,100196.16
2019-02-07T18:33:10.951Z,100195.97
2019-02-07T18:34:46.040Z,100197.98
2019-02-07T18:36:22.085Z,100198.12
2019-02-07T18:37:56.538Z,100195.38
2019-02-07T18:39:31.145Z,100197.50
2019-02-07T18:41:05.885Z,100205.86
2019-02-07T18:42:40.531Z,100207.38
2019-02-07T18:44:14.974Z,100204.17
2019-02-07T18:45:50.119Z,100206.52
2019-02-07T18:47:24.682Z,100214.97
2019-02-07T18:48:59.352Z,100214.45
2019-02-07T18:50:35.902Z,100216.27
2019-02-07T18:52:10.414Z,100228.42
2019-02-07T18:53:45.159Z,100233.35
2019-02-07T18:55:19.702Z,100224.11
2019-02-07T18:56:54.116Z,100230.95
2019-02-07T18:58:28.551Z,100244.67
2019-02-07T19:00:03.294Z,100238.28
2019-02-07T19:01:37.977Z,100241.73
2019-02-07T19:03:12.444Z,100229.73
2019-02-07T19:04:46.877Z,100221.70
2019-02-07T19:06:21.530Z,100235.73
2019-02-07T19:07:56.094Z,100234.35
2019-02-07T19:09:30.743Z,100238.23
2019-02-07T19:11:05.187Z,100234.25
2019-02-07T19:12:39.622Z,100234.58
2019-02-07T19:14:14.410Z,100227.47
2019-02-07T19:15:55.907Z,100233.92
2019-02-07T19:17:30.782Z,100226.83
2019-02-07T19:19:05.259Z,100222.22
2019-02-07T19:20:39.818Z,100215.31
2019-02-07T19:22:14.189Z,100209.96
2019-02-07T19:23:48.642Z,100210.38
2019-02-07T19:25:23.106Z,100225.72
2019-02-07T19:26:57.804Z,100213.92
2019-02-07T19:28:32.362Z,100219.78
2019-02-07T19:30:11.025Z,100223.97
2019-02-07T19:31:45.482Z,100237.59
2019-02-07T19:33:22.501Z,100238.62
2019-02-07T19:34:56.110Z,100236.77
2019-02-07T19:36:30.526Z,100241.47
2019-02-07T19:38:05.271Z,100241.02
2019-02-07T19:39:39.898Z,100233.13
2019-02-07T19:41:14.767Z,100227.37
2019-02-07T19:42:49.686Z,100233.16
2019-02-07T19:44:24.361Z,100243.05
2019-02-07T19:45:59.026Z,100234.10
2019-02-07T19:47:33.756Z,100233.63
2019-02-07T19:49:08.354Z,100217.17
2019-02-07T19:50:42.817Z,100228.29
2019-02-07T19:52:17.706Z,100243.18
2019-02-07T19:53:52.230Z,100249.16
2019-02-07T19:55:28.500Z,100257.25
2019-02-07T19:57:03.255Z,100263.85
2019-02-07T19:58:37.890Z,100273.05
2019-02-07T20:00:15.226Z,100274.03
2019-02-07T20:01:49.929Z,100276.11
2019-02-07T20:03:24.656Z,100274.03